createdAt,value
2022-08-23T00:01:58.426Z,2.88
2022-08-23T00:04:32.201Z,3.58
2022-08-23T00:07:02.167Z,3.22
2022-08-23T00:09:29.348Z,3.65
2022-08-23T00:11:55.751Z,3.80
2022-08-23T00:14:24.708Z,4.30
2022-08-23T00:16:51.560Z,4.20
2022-08-23T00:19:18.613Z,4.00
2022-08-23T00:21:50.081Z,4.78
2022-08-23T00:24:17.469Z,4.22
2022-08-23T00:26:52.834Z,4.95
2022-08-23T00:29:19.916Z,4.43
2022-08-23T00:31:46.647Z,3.92
2022-08-23T00:34:13.014Z,4.43
2022-08-23T00:36:39.828Z,4.32
2022-08-23T00:39:06.743Z,4.05
2022-08-23T00:41:34.182Z,4.63
2022-08-23T00:44:19.963Z,4.88
2022-08-23T00:47:04.728Z,4.40
2022-08-23T00:49:32.045Z,4.45
2022-08-23T00:52:17.929Z,4.72
2022-08-23T00:54:44.599Z,4.75
2022-08-23T00:57:13.292Z,5.20
2022-08-23T00:59:39.678Z,5.00
2022-08-23T01:02:06.296Z,5.50
2022-08-23T01:04:37.296Z,5.47
2022-08-23T01:07:06.749Z,4.88
2022-08-23T01:09:33.150Z,5.20
2022-08-23T01:12:08.195Z,5.55
2022-08-23T01:14:38.334Z,6.05
2022-08-23T01:17:10.629Z,6.03
2022-08-23T01:19:39.002Z,5.70
2022-08-23T01:22:16.164Z,5.68
2022-08-23T01:25:08.414Z,6.22
2022-08-23T01:27:30.119Z,6.05
2022-08-23T01:29:58.704Z,5.97
2022-08-23T01:32:25.714Z,6.80
2022-08-23T01:34:52.191Z,6.47
2022-08-23T01:37:19.283Z,6.43
2022-08-23T01:39:45.697Z,7.00
2022-08-23T01:42:12.433Z,6.45
2022-08-23T01:44:39.068Z,6.15
2022-08-23T01:47:06.172Z,6.18
2022-08-23T01:49:33.389Z,6.65
2022-08-23T01:52:00.205Z,6.65
2022-08-23T01:54:26.722Z,6.60
2022-08-23T01:56:53.130Z,6.97
2022-08-23T01:59:19.766Z,6.60
2022-08-23T02:01:47.366Z,6.65
2022-08-23T02:04:13.877Z,6.57
2022-08-23T02:06:40.253Z,6.57
2022-08-23T02:09:17.373Z,6.93
2022-08-23T02:11:45.416Z,6.45
2022-08-23T02:14:17.011Z,6.47
2022-08-23T02:17:03.887Z,6.72
2022-08-23T02:19:32.019Z,6.93
2022-08-23T02:21:58.396Z,6.95
2022-08-23T02:24:25.442Z,6.82
2022-08-23T02:26:56.742Z,6.57
2022-08-23T02:29:24.507Z,6.95
2022-08-23T02:31:51.115Z,7.07
2022-08-23T02:34:18.236Z,7.63
2022-08-23T02:36:45.195Z,7.75
2022-08-23T02:39:11.829Z,7.25
2022-08-23T02:41:41.865Z,6.75
2022-08-23T02:44:11.200Z,7.53
2022-08-23T02:46:38.433Z,7.50
2022-08-23T02:49:04.846Z,6.45
2022-08-23T02:51:34.148Z,7.00
2022-08-23T02:54:01.315Z,6.53
2022-08-23T02:56:27.645Z,6.43
2022-08-23T02:58:55.009Z,6.50
2022-08-23T03:01:31.477Z,6.50
2022-08-23T03:03:58.549Z,6.68
2022-08-23T03:06:26.479Z,6.50
2022-08-23T03:08:54.320Z,6.22
2022-08-23T03:11:21.877Z,6.00
2022-08-23T03:13:48.882Z,6.18
2022-08-23T03:16:15.976Z,5.85
2022-08-23T03:18:42.850Z,5.85
2022-08-23T03:21:09.721Z,6.18
2022-08-23T03:23:36.816Z,5.90
2022-08-23T03:26:04.504Z,5.80
2022-08-23T03:28:31.159Z,5.80
2022-08-23T03:30:59.907Z,5.75
2022-08-23T03:33:26.450Z,5.50
2022-08-23T03:35:52.838Z,5.60
2022-08-23T03:38:19.906Z,5.82
2022-08-23T03:40:46.270Z,5.90
2022-08-23T03:43:14.972Z,6.60
2022-08-23T03:45:41.308Z,5.90
2022-08-23T03:48:07.643Z,6.32
2022-08-23T03:50:34.085Z,6.72
2022-08-23T03:53:00.430Z,6.68
2022-08-23T03:55:26.982Z,5.88
2022-08-23T03:57:53.398Z,6.40
2022-08-23T04:00:20.259Z,5.95
2022-08-23T04:02:47.103Z,6.63
2022-08-23T04:05:13.601Z,6.13
2022-08-23T04:07:40.340Z,6.22
2022-08-23T04:10:07.989Z,6.72
2022-08-23T04:12:34.595Z,6.80
2022-08-23T04:15:02.450Z,6.38
2022-08-23T04:17:32.458Z,6.85
2022-08-23T04:19:59.340Z,6.65
2022-08-23T04:22:25.783Z,7.38
2022-08-23T04:24:52.252Z,6.72
2022-08-23T04:27:18.704Z,6.32
2022-08-23T04:29:45.211Z,7.05
2022-08-23T04:32:12.071Z,6.72
2022-08-23T04:34:45.596Z,7.43
2022-08-23T04:37:12.715Z,6.57
2022-08-23T04:39:57.507Z,7.15
2022-08-23T04:42:24.836Z,6.70
2022-08-23T04:44:51.309Z,6.88
2022-08-23T04:47:18.078Z,6.68
2022-08-23T04:49:44.448Z,6.18
2022-08-23T04:52:11.355Z,6.32
2022-08-23T04:54:37.927Z,6.80
2022-08-23T04:57:04.317Z,6.70
2022-08-23T04:59:30.672Z,7.05
2022-08-23T05:01:57.922Z,7.05
2022-08-23T05:04:24.244Z,7.82
2022-08-23T05:06:53.270Z,7.93
2022-08-23T05:09:20.776Z,8.07
2022-08-23T05:11:47.408Z,8.60
2022-08-23T05:14:13.809Z,9.18
2022-08-23T05:16:40.211Z,8.27
2022-08-23T05:19:06.635Z,8.55
2022-08-23T05:21:33.150Z,9.57
2022-08-23T05:24:00.369Z,9.68
2022-08-23T05:26:30.149Z,9.70
2022-08-23T05:28:56.495Z,9.20
2022-08-23T05:31:23.975Z,8.75
2022-08-23T05:33:50.634Z,7.63
2022-08-23T05:36:17.811Z,7.63
2022-08-23T05:38:45.644Z,7.60
2022-08-23T05:41:12.027Z,6.75
2022-08-23T05:43:38.400Z,7.15
2022-08-23T05:46:07.869Z,7.25
2022-08-23T05:48:40.985Z,7.25
2022-08-23T05:51:34.336Z,7.20
2022-08-23T05:54:02.750Z,7.28
2022-08-23T05:56:31.031Z,7.03
2022-08-23T05:59:00.072Z,7.20
2022-08-23T06:01:27.738Z,7.18
2022-08-23T06:03:54.298Z,6.68
2022-08-23T06:06:20.757Z,7.50
2022-08-23T06:08:48.693Z,6.93
2022-08-23T06:11:22.841Z,7.20
2022-08-23T06:13:50.720Z,7.05
2022-08-23T06:16:18.567Z,6.45
2022-08-23T06:18:45.537Z,6.40
2022-08-23T06:21:12.644Z,5.53
2022-08-23T06:23:39.212Z,4.90
2022-08-23T06:26:12.631Z,5.22
2022-08-23T06:28:50.233Z,4.72
2022-08-23T06:31:41.217Z,4.38
2022-08-23T06:34:12.182Z,4.78
2022-08-23T06:36:38.811Z,5.40
2022-08-23T06:39:05.848Z,4.57
2022-08-23T06:41:32.354Z,4.90
2022-08-23T06:43:58.870Z,5.20
2022-08-23T06:46:28.245Z,4.60
2022-08-23T06:48:55.971Z,4.40
2022-08-23T06:51:26.610Z,4.38
2022-08-23T06:53:56.464Z,4.47
2022-08-23T06:56:23.466Z,4.18
2022-08-23T06:58:50.209Z,4.65
2022-08-23T07:01:45.298Z,3.58
2022-08-23T07:04:13.976Z,3.53
2022-08-23T07:06:40.861Z,4.13
2022-08-23T07:09:07.304Z,3.47
2022-08-23T07:11:34.077Z,3.75
2022-08-23T07:14:01.465Z,4.20
2022-08-23T07:16:41.735Z,3.40
2022-08-23T07:19:09.274Z,3.58
2022-08-23T07:21:35.872Z,3.85
2022-08-23T07:24:03.025Z,3.53
2022-08-23T07:26:29.478Z,3.50
2022-08-23T07:28:57.092Z,3.38
2022-08-23T07:31:28.463Z,3.38
2022-08-23T07:33:55.805Z,3.70
2022-08-23T07:36:27.907Z,3.30
2022-08-23T07:38:54.937Z,3.13
2022-08-23T07:41:24.054Z,3.63
2022-08-23T07:43:50.963Z,3.40
2022-08-23T07:46:18.090Z,2.67
2022-08-23T07:48:53.902Z,3.10
2022-08-23T07:51:22.053Z,2.90
2022-08-23T07:53:48.450Z,2.83
2022-08-23T07:56:15.847Z,3.08
2022-08-23T07:58:42.299Z,2.72
2022-08-23T08:01:16.672Z,2.90
2022-08-23T08:03:44.426Z,2.92
2022-08-23T08:06:12.645Z,3.00
2022-08-23T08:08:41.082Z,3.03
2022-08-23T08:11:08.139Z,2.90
2022-08-23T08:13:35.587Z,2.90
2022-08-23T08:16:02.064Z,2.80
2022-08-23T08:18:28.505Z,3.17
2022-08-23T08:20:54.859Z,2.75
2022-08-23T08:23:21.304Z,2.67
2022-08-23T08:25:47.665Z,2.40
2022-08-23T08:28:16.050Z,2.95
2022-08-23T08:30:42.621Z,2.80
2022-08-23T08:33:09.005Z,2.60
2022-08-23T08:35:35.375Z,3.00
2022-08-23T08:38:02.866Z,2.75
2022-08-23T08:40:31.432Z,2.60
2022-08-23T08:43:17.516Z,2.50
2022-08-23T08:50:41.484Z,2.53
2022-08-23T08:53:17.740Z,2.78
2022-08-23T08:55:46.263Z,2.65
2022-08-23T08:58:24.733Z,3.03
2022-08-23T09:00:55.585Z,2.75
2022-08-23T09:03:23.879Z,2.70
2022-08-23T09:06:00.122Z,2.50
2022-08-23T09:08:45.925Z,2.58
2022-08-23T09:11:31.609Z,2.80
2022-08-23T09:13:59.218Z,2.47
2022-08-23T09:16:40.746Z,2.35
2022-08-23T09:19:07.265Z,2.63
2022-08-23T09:21:39.751Z,2.45
2022-08-23T09:24:06.518Z,2.70
2022-08-23T09:26:33.063Z,2.33
2022-08-23T09:29:02.047Z,2.05
2022-08-23T09:31:44.681Z,2.60
2022-08-23T09:34:15.693Z,2.90
2022-08-23T09:36:42.066Z,2.50
2022-08-23T09:39:23.709Z,2.28
2022-08-23T09:41:57.895Z,2.03
2022-08-23T09:44:35.869Z,2.33
2022-08-23T09:47:09.936Z,2.60
2022-08-23T09:49:36.339Z,2.28
2022-08-23T09:52:12.853Z,2.50
2022-08-23T09:55:03.157Z,2.50
2022-08-23T09:57:30.974Z,2.00
2022-08-23T10:00:02.200Z,2.53
2022-08-23T10:02:30.891Z,2.30
2022-08-23T10:05:00.367Z,2.25
2022-08-23T10:07:26.946Z,2.15
2022-08-23T10:09:54.169Z,2.20
2022-08-23T10:12:20.631Z,2.28
2022-08-23T10:14:47.993Z,2.10
2022-08-23T10:17:37.849Z,2.30
2022-08-23T10:20:16.769Z,1.80
2022-08-23T10:22:46.164Z,2.30
2022-08-23T10:25:12.772Z,1.80
2022-08-23T10:28:04.009Z,2.03
2022-08-23T10:30:39.208Z,2.00
2022-08-23T10:33:14.345Z,1.80
2022-08-23T10:35:57.413Z,1.98
2022-08-23T10:38:29.669Z,2.20
2022-08-23T10:41:02.086Z,2.20
2022-08-23T10:43:48.700Z,1.98
2022-08-23T10:46:15.048Z,1.80
2022-08-23T10:48:53.923Z,2.15
2022-08-23T10:51:31.986Z,2.00
2022-08-23T10:54:03.655Z,2.88
2022-08-23T10:56:30.085Z,3.17
2022-08-23T10:58:58.432Z,3.08
2022-08-23T11:01:28.732Z,2.50
2022-08-23T11:04:14.620Z,3.03
2022-08-23T11:06:44.592Z,2.70
2022-08-23T11:09:19.887Z,4.22
2022-08-23T11:11:49.347Z,4.10
2022-08-23T11:14:27.936Z,4.00
2022-08-23T11:16:59.637Z,4.18
2022-08-23T11:19:44.927Z,3.80
2022-08-23T11:22:19.211Z,3.97
2022-08-23T11:24:50.586Z,4.03
2022-08-23T11:27:35.707Z,4.30
2022-08-23T11:30:20.885Z,4.63
2022-08-23T11:32:48.372Z,4.17
2022-08-23T11:35:27.063Z,3.80
2022-08-23T11:37:57.054Z,3.55
2022-08-23T11:40:41.999Z,3.25
2022-08-23T11:43:25.357Z,3.15
2022-08-23T11:45:52.427Z,3.63
2022-08-23T11:48:25.123Z,3.67
2022-08-23T11:50:57.606Z,3.30
2022-08-23T11:53:24.536Z,3.40
2022-08-23T11:56:05.581Z,3.40
2022-08-23T11:58:50.778Z,3.88
2022-08-23T12:01:27.433Z,4.22
2022-08-23T12:03:59.941Z,4.82
2022-08-23T12:06:39.188Z,4.90
2022-08-23T12:09:12.056Z,3.40
2022-08-23T12:11:53.900Z,3.90
2022-08-23T12:14:41.258Z,3.47
2022-08-23T12:17:16.956Z,3.28
2022-08-23T12:19:48.904Z,3.67
2022-08-23T12:22:19.670Z,3.60
2022-08-23T12:24:46.973Z,3.72
2022-08-23T12:27:32.446Z,3.80
2022-08-23T12:30:24.986Z,4.27
2022-08-23T12:33:03.290Z,3.35
2022-08-23T12:35:35.010Z,3.47
2022-08-23T12:38:01.565Z,3.92
2022-08-23T12:40:31.859Z,3.83
2022-08-23T12:43:24.398Z,3.17
2022-08-23T12:45:55.562Z,2.80
2022-08-23T12:48:24.369Z,3.05
2022-08-23T12:50:55.621Z,2.80
2022-08-23T12:53:32.991Z,2.60
2022-08-23T12:56:05.426Z,2.83
2022-08-23T12:58:33.806Z,2.45
2022-08-23T13:01:01.627Z,2.20
2022-08-23T13:03:27.949Z,2.22
2022-08-23T13:06:02.524Z,2.20
2022-08-23T13:08:41.216Z,2.05
2022-08-23T13:11:10.982Z,2.45
2022-08-23T13:13:39.290Z,2.20
2022-08-23T13:16:27.099Z,2.40
2022-08-23T13:18:56.424Z,2.20
2022-08-23T13:21:22.983Z,2.05
2022-08-23T13:23:53.898Z,2.58
2022-08-23T13:26:29.552Z,2.20
2022-08-23T13:29:01.646Z,2.10
2022-08-23T13:31:47.652Z,2.38
2022-08-23T13:36:43.748Z,2.42
2022-08-23T13:39:10.134Z,2.15
2022-08-23T13:41:38.625Z,2.20
2022-08-23T13:44:06.906Z,2.13
2022-08-23T13:46:34.313Z,2.00
2022-08-23T13:49:06.099Z,2.20
2022-08-23T13:51:37.062Z,2.25
2022-08-23T13:54:09.886Z,2.25
2022-08-23T13:56:38.275Z,2.20
2022-08-23T13:59:31.796Z,1.95
2022-08-23T14:02:02.884Z,2.30
2022-08-23T14:04:29.394Z,2.47
2022-08-23T14:06:55.812Z,2.10
2022-08-23T14:09:22.223Z,2.20
2022-08-23T14:11:52.339Z,2.17
2022-08-23T14:14:18.926Z,2.28
2022-08-23T14:16:45.337Z,2.30
2022-08-23T14:19:16.574Z,1.98
2022-08-23T14:21:59.063Z,2.25
2022-08-23T14:24:26.988Z,1.90
2022-08-23T14:26:53.867Z,2.05
2022-08-23T14:29:22.390Z,1.98
2022-08-23T14:31:49.540Z,2.08
2022-08-23T14:34:16.020Z,2.50
2022-08-23T14:38:00.252Z,1.83
2022-08-23T14:39:29.029Z,1.67
2022-08-23T14:41:55.594Z,2.13
2022-08-23T14:44:21.980Z,1.85
2022-08-23T14:46:48.402Z,1.77
2022-08-23T14:49:14.797Z,1.52
2022-08-23T14:51:46.106Z,1.80
2022-08-23T14:54:14.710Z,1.55
2022-08-23T14:56:41.248Z,1.90
2022-08-23T14:59:07.703Z,2.03
2022-08-23T15:01:34.354Z,1.90
2022-08-23T15:04:01.714Z,1.77
2022-08-23T15:06:28.139Z,2.05
2022-08-23T15:14:27.290Z,1.50
2022-08-23T15:16:53.785Z,1.90
2022-08-23T15:19:20.277Z,1.83
2022-08-23T15:21:46.733Z,1.55
2022-08-23T15:24:13.157Z,1.77
2022-08-23T15:26:39.535Z,1.80
2022-08-23T15:29:06.018Z,1.50
2022-08-23T15:31:32.640Z,1.55
2022-08-23T15:33:59.109Z,1.60
2022-08-23T15:36:25.627Z,1.70
2022-08-23T15:38:52.137Z,1.40
2022-08-23T15:41:20.061Z,1.42
2022-08-23T15:43:46.896Z,1.48
2022-08-23T15:46:17.166Z,1.70
2022-08-23T15:48:46.036Z,1.80
2022-08-23T15:51:12.429Z,1.60
2022-08-23T15:53:39.617Z,1.88
2022-08-23T15:56:11.567Z,1.48
2022-08-23T15:58:38.746Z,1.50
2022-08-23T16:01:06.266Z,1.70
2022-08-23T16:03:33.108Z,1.60
2022-08-23T16:05:59.630Z,1.67
2022-08-23T16:08:36.317Z,1.70
2022-08-23T16:11:05.069Z,1.50
2022-08-23T16:13:31.408Z,1.58
2022-08-23T16:15:57.957Z,1.60
2022-08-23T16:18:24.495Z,1.60
2022-08-23T16:20:54.088Z,1.65
2022-08-23T16:23:23.514Z,1.65
2022-08-23T16:25:50.054Z,1.80
2022-08-23T16:28:16.737Z,1.73
2022-08-23T16:30:43.612Z,1.80
2022-08-23T16:33:10.085Z,1.90
2022-08-23T16:35:36.513Z,1.75
2022-08-23T16:38:08.535Z,1.70
2022-08-23T16:40:41.101Z,1.73
2022-08-23T16:43:07.518Z,1.95
2022-08-23T16:45:33.896Z,2.03
2022-08-23T16:48:00.350Z,2.55
2022-08-23T16:50:27.405Z,2.92
2022-08-23T16:52:53.906Z,1.85
2022-08-23T16:55:20.329Z,2.05
2022-08-23T16:57:46.729Z,2.00
2022-08-23T17:00:14.136Z,2.35
2022-08-23T17:02:41.458Z,2.17
2022-08-23T17:05:09.123Z,2.10
2022-08-23T17:07:36.379Z,2.33
2022-08-23T17:10:03.469Z,2.15
2022-08-23T17:12:31.273Z,2.58
2022-08-23T17:14:57.682Z,2.30
2022-08-23T17:17:25.033Z,2.47
2022-08-23T17:19:51.442Z,2.55
2022-08-23T17:22:17.820Z,2.20
2022-08-23T17:24:44.434Z,2.40
2022-08-23T17:27:12.262Z,2.45
2022-08-23T17:29:45.817Z,2.00
2022-08-23T17:32:12.936Z,2.30
2022-08-23T17:34:39.708Z,2.60
2022-08-23T17:37:13.653Z,2.40
2022-08-23T17:39:40.355Z,3.03
2022-08-23T17:42:08.316Z,2.13
2022-08-23T17:44:37.036Z,2.00
2022-08-23T17:47:07.605Z,2.50
2022-08-23T17:49:34.374Z,2.22
2022-08-23T17:52:02.128Z,6.07
2022-08-23T17:54:28.589Z,3.20
2022-08-23T17:56:54.995Z,2.60
2022-08-23T17:59:21.656Z,2.33
2022-08-23T18:01:48.970Z,2.38
2022-08-23T18:04:15.484Z,2.78
2022-08-23T18:06:41.991Z,2.20
2022-08-23T18:09:08.482Z,2.50
2022-08-23T18:11:35.413Z,2.83
2022-08-23T18:14:01.903Z,2.65
2022-08-23T18:16:34.411Z,3.08
2022-08-23T18:19:02.445Z,2.30
2022-08-23T18:21:31.722Z,2.65
2022-08-23T18:23:58.985Z,2.47
2022-08-23T18:26:44.331Z,2.72
2022-08-23T18:29:12.235Z,2.35
2022-08-23T18:31:40.222Z,6.30
2022-08-23T18:34:06.706Z,3.05
2022-08-23T18:36:33.422Z,2.90
2022-08-23T18:38:59.767Z,2.65
2022-08-23T18:41:26.190Z,2.75
2022-08-23T18:43:55.454Z,2.83
2022-08-23T18:46:21.926Z,2.88
2022-08-23T18:48:53.602Z,2.78
2022-08-23T18:51:20.317Z,2.65
2022-08-23T18:53:46.859Z,2.60
2022-08-23T18:56:13.209Z,2.95
2022-08-23T18:58:39.836Z,2.90
2022-08-23T19:01:25.427Z,2.83
2022-08-23T19:03:52.517Z,3.30
2022-08-23T19:06:19.244Z,3.17
2022-08-23T19:08:46.942Z,3.10
2022-08-23T19:11:13.372Z,3.15
2022-08-23T19:13:39.744Z,3.00
2022-08-23T19:16:08.833Z,3.70
2022-08-23T19:18:35.763Z,3.60
2022-08-23T19:21:05.136Z,3.85
2022-08-23T19:23:31.541Z,3.80
2022-08-23T19:25:58.074Z,3.70
2022-08-23T19:28:24.505Z,3.80
2022-08-23T19:30:51.815Z,3.60
2022-08-23T19:33:18.365Z,3.95
2022-08-23T19:35:45.499Z,4.20
2022-08-23T19:38:14.397Z,3.15
2022-08-23T19:40:42.414Z,3.63
2022-08-23T19:43:09.771Z,4.35
2022-08-23T19:45:37.342Z,4.95
2022-08-23T19:48:04.101Z,5.00
2022-08-23T19:50:30.571Z,4.90
2022-08-23T19:52:56.958Z,5.00
2022-08-23T19:55:23.893Z,5.25
2022-08-23T19:57:54.934Z,4.65
2022-08-23T20:00:22.908Z,4.90
2022-08-23T20:02:49.686Z,4.90
2022-08-23T20:05:16.630Z,4.50
2022-08-23T20:07:43.416Z,5.18
2022-08-23T20:10:10.558Z,4.88
2022-08-23T20:12:37.030Z,4.55
2022-08-23T20:15:04.864Z,4.80
2022-08-23T20:17:31.632Z,4.90
2022-08-23T20:19:57.995Z,4.80
2022-08-23T20:22:42.906Z,4.70
2022-08-23T20:25:12.150Z,5.05
2022-08-23T20:27:38.551Z,5.25
2022-08-23T20:30:06.166Z,4.53
2022-08-23T20:32:33.259Z,5.20
2022-08-23T20:35:00.578Z,5.20
2022-08-23T20:37:27.064Z,5.43
2022-08-23T20:39:53.578Z,5.45
2022-08-23T20:42:20.007Z,5.05
2022-08-23T20:44:46.706Z,4.60
2022-08-23T20:47:13.222Z,4.72
2022-08-23T20:49:39.871Z,4.63
2022-08-23T20:52:06.482Z,4.70
2022-08-23T20:54:32.848Z,4.57
2022-08-23T20:56:59.203Z,4.70
2022-08-23T20:59:25.916Z,4.93
2022-08-23T21:01:52.397Z,4.93
2022-08-23T21:04:19.258Z,4.63
2022-08-23T21:06:47.224Z,5.38
2022-08-23T21:09:17.045Z,4.97
2022-08-23T21:11:44.157Z,4.38
2022-08-23T21:14:10.986Z,4.60
2022-08-23T21:16:37.653Z,4.47
2022-08-23T21:19:04.143Z,4.65
2022-08-23T21:21:30.634Z,3.95
2022-08-23T21:23:57.539Z,4.68
2022-08-23T21:26:24.658Z,4.15
2022-08-23T21:28:51.777Z,4.47
2022-08-23T21:31:19.872Z,4.40
2022-08-23T21:33:46.562Z,4.15
2022-08-23T21:36:13.906Z,4.50
2022-08-23T21:38:40.558Z,4.55
2022-08-23T21:41:09.320Z,5.03
2022-08-23T21:43:39.510Z,4.57
2022-08-23T21:46:07.248Z,4.50
2022-08-23T21:48:34.011Z,5.18
2022-08-23T21:51:00.871Z,4.50
2022-08-23T21:53:27.255Z,4.35
2022-08-23T21:55:53.770Z,4.15
2022-08-23T21:58:20.693Z,4.53
2022-08-23T22:00:47.189Z,5.28
2022-08-23T22:03:13.703Z,4.90
2022-08-23T22:05:40.826Z,4.88
2022-08-23T22:08:07.246Z,4.45
2022-08-23T22:10:36.397Z,4.90
2022-08-23T22:13:04.007Z,4.10
2022-08-23T22:15:32.431Z,4.30
2022-08-23T22:17:59.541Z,5.00
2022-08-23T22:20:26.472Z,4.90
2022-08-23T22:22:52.926Z,4.72
2022-08-23T22:25:19.381Z,4.90
2022-08-23T22:27:46.731Z,5.50
2022-08-23T22:30:14.486Z,4.80
2022-08-23T22:32:41.413Z,4.97
2022-08-23T22:35:08.827Z,5.32
2022-08-23T22:37:45.919Z,5.07
2022-08-23T22:40:20.297Z,5.35
2022-08-23T22:42:46.800Z,5.47
2022-08-23T22:45:14.123Z,5.00
2022-08-23T22:47:40.537Z,5.47
2022-08-23T22:50:07.286Z,6.07
2022-08-23T22:52:33.714Z,5.72
2022-08-23T22:55:00.114Z,5.95
2022-08-23T22:57:26.460Z,5.80
2022-08-23T22:59:52.860Z,5.88
2022-08-23T23:02:21.627Z,5.93
2022-08-23T23:04:48.312Z,5.75
2022-08-23T23:07:14.821Z,6.40
2022-08-23T23:09:41.330Z,5.65
2022-08-23T23:12:07.776Z,6.00
2022-08-23T23:14:34.684Z,5.78
2022-08-23T23:17:01.149Z,6.10
2022-08-23T23:19:46.723Z,6.40
2022-08-23T23:22:13.625Z,6.32
2022-08-23T23:24:40.239Z,6.55
2022-08-23T23:27:07.122Z,5.88
2022-08-23T23:29:33.649Z,6.50
2022-08-23T23:32:00.075Z,5.88
2022-08-23T23:34:27.992Z,6.43
2022-08-23T23:36:58.020Z,6.20
2022-08-23T23:39:24.582Z,6.32
2022-08-23T23:41:51.473Z,6.40
2022-08-23T23:44:29.143Z,5.97
2022-08-23T23:46:58.303Z,6.60
2022-08-23T23:49:32.394Z,6.47
2022-08-23T23:52:00.298Z,6.20
2022-08-23T23:54:26.637Z,7.57
2022-08-23T23:56:52.992Z,7.50
2022-08-23T23:59:19.965Z,7.07
